Time;durP1;ratioP1;P1;durP2;ratioP2;P2;SDS_P1;SDS_P2;PMS_P1;PMS_P2;Temp;Humidity;BMP_temperature;BMP_pressure;BME280_temperature;BME280_humidity;BME280_pressure;Samples;Min_cycle;Max_cycle;Signal;HPM_P1;HPM_P2
2021/04/04 00:02:40;;;;;;;12.97;5.03;;;4.60;86.20;;;;;;5063879;28;20465;-71
2021/04/04 00:05:25;;;;;;;9.93;5.50;;;4.60;85.80;;;;;;5062797;28;20794;-71
2021/04/04 00:08:10;;;;;;;7.47;4.73;;;4.40;85.70;;;;;;5061570;28;20425;-71
2021/04/04 00:10:55;;;;;;;9.57;4.83;;;4.20;86.50;;;;;;5065326;28;20417;-71
2021/04/04 00:13:42;;;;;;;10.47;5.03;;;4.20;88.00;;;;;;5061024;28;20827;-71
2021/04/04 00:16:27;;;;;;;7.53;5.30;;;4.20;88.30;;;;;;5066269;28;20473;-72
2021/04/04 00:19:12;;;;;;;9.40;4.63;;;4.10;89.70;;;;;;5064338;28;20947;-73
2021/04/04 00:21:57;;;;;;;10.60;5.63;;;3.90;90.50;;;;;;5061998;28;20460;-70
2021/04/04 00:24:43;;;;;;;10.17;5.60;;;4.00;91.10;;;;;;5065914;28;20462;-71
2021/04/04 00:27:28;;;;;;;9.93;5.70;;;4.00;91.10;;;;;;5058460;28;20555;-71
2021/04/04 00:30:17;;;;;;;9.40;5.37;;;4.00;91.20;;;;;;5063270;28;20441;-71
2021/04/04 00:33:02;;;;;;;9.97;5.87;;;4.00;91.50;;;;;;5062403;28;20551;-71
2021/04/04 00:35:48;;;;;;;9.87;6.30;;;4.00;91.50;;;;;;5063709;28;20473;-74
2021/04/04 00:38:33;;;;;;;12.23;5.38;;;3.80;91.60;;;;;;5061767;28;21005;-70
2021/04/04 00:41:19;;;;;;;10.48;6.40;;;3.70;92.00;;;;;;5055124;28;20309;-71
2021/04/04 00:44:05;;;;;;;12.73;6.15;;;3.80;91.90;;;;;;5053191;28;20266;-70
2021/04/04 00:46:51;;;;;;;7.68;5.30;;;3.90;92.20;;;;;;5065367;28;20664;-70
2021/04/04 00:49:36;;;;;;;10.00;6.37;;;4.00;91.70;;;;;;5062149;28;20247;-70
2021/04/04 00:52:21;;;;;;;10.90;5.70;;;4.20;91.30;;;;;;5063861;28;20802;-69
2021/04/04 00:55:08;;;;;;;18.63;6.60;;;4.40;91.10;;;;;;5058873;28;20256;-69
2021/04/04 00:57:54;;;;;;;14.43;7.43;;;4.50;90.50;;;;;;5055675;28;21016;-70
2021/04/04 01:00:39;;;;;;;8.47;6.00;;;4.50;90.00;;;;;;5062955;28;20429;-69
2021/04/04 01:03:25;;;;;;;9.60;5.10;;;4.50;90.00;;;;;;5057669;28;20499;-71
2021/04/04 01:06:11;;;;;;;10.93;6.77;;;4.50;90.00;;;;;;5059074;28;20439;-72
2021/04/04 01:08:57;;;;;;;12.20;6.60;;;4.40;90.10;;;;;;5065869;28;20472;-71
2021/04/04 01:11:53;;;;;;;7.90;5.63;;;4.20;90.50;;;;;;5061854;28;20489;-70
2021/04/04 01:14:49;;;;;;;16.67;6.43;;;4.40;90.40;;;;;;5061673;28;20225;-69
2021/04/04 01:17:35;;;;;;;15.20;6.27;;;4.50;90.00;;;;;;5059241;28;20452;-70
2021/04/04 01:20:25;;;;;;;14.33;6.40;;;4.60;90.10;;;;;;5061306;28;20521;-70
2021/04/04 01:23:57;;;;;;;10.43;6.10;;;4.70;90.10;;;;;;5057020;28;20459;-70
2021/04/04 01:26:51;;;;;;;9.43;5.60;;;4.50;89.80;;;;;;5038583;28;20438;-73
2021/04/04 01:29:39;;;;;;;14.60;6.87;;;4.30;89.90;;;;;;5064779;28;20493;-71
2021/04/04 01:32:25;;;;;;;8.80;5.30;;;4.30;90.30;;;;;;5062157;28;20503;-69
2021/04/04 01:35:13;;;;;;;12.17;5.70;;;4.40;90.10;;;;;;5064261;28;20489;-70
2021/04/04 01:38:01;;;;;;;10.93;5.47;;;4.40;90.00;;;;;;5061992;28;20442;-72
2021/04/04 01:40:49;;;;;;;8.20;5.73;;;4.30;89.90;;;;;;5057347;28;20979;-70
2021/04/04 01:43:36;;;;;;;9.63;5.80;;;4.10;90.10;;;;;;5058976;28;20474;-73
2021/04/04 01:46:22;;;;;;;8.13;5.75;;;4.10;90.40;;;;;;5061255;28;22684;-70
2021/04/04 01:49:07;;;;;;;9.97;5.43;;;4.00;90.50;;;;;;5062353;28;20252;-72
2021/04/04 01:51:54;;;;;;;8.85;6.25;;;4.00;90.20;;;;;;5065182;28;20863;-71
2021/04/04 01:54:41;;;;;;;9.70;5.40;;;4.00;90.50;;;;;;5061201;28;20274;-71
2021/04/04 01:57:29;;;;;;;9.63;4.60;;;4.00;90.70;;;;;;5063682;28;20208;-71
2021/04/04 02:00:16;;;;;;;9.27;4.50;;;3.90;90.50;;;;;;5066559;28;20443;-74
2021/04/04 02:03:03;;;;;;;8.10;5.30;;;3.90;90.50;;;;;;5058775;28;20476;-71
2021/04/04 02:05:50;;;;;;;6.90;4.85;;;3.80;90.80;;;;;;5060986;28;20506;-70
2021/04/04 02:08:35;;;;;;;8.97;4.40;;;4.00;91.00;;;;;;5059201;28;20208;-70
2021/04/04 02:11:27;;;;;;;8.40;5.00;;;4.10;91.30;;;;;;5057632;28;20551;-71
2021/04/04 02:14:14;;;;;;;14.40;5.87;;;4.10;90.80;;;;;;5062615;28;20433;-72
2021/04/04 02:17:01;;;;;;;7.47;4.43;;;3.90;91.00;;;;;;5059329;28;20417;-71
2021/04/04 02:19:47;;;;;;;8.07;5.00;;;3.80;90.80;;;;;;5063088;28;20451;-72
2021/04/04 02:22:33;;;;;;;7.80;4.57;;;3.70;91.60;;;;;;5060949;28;20537;-74
2021/04/04 02:25:18;;;;;;;7.67;4.40;;;3.60;92.20;;;;;;5057356;28;20435;-70
2021/04/04 02:28:05;;;;;;;7.40;5.07;;;3.30;92.30;;;;;;5055946;28;20457;-73
2021/04/04 02:30:51;;;;;;;23.70;5.80;;;3.40;93.10;;;;;;5062955;28;20533;-70
2021/04/04 02:33:42;;;;;;;9.67;4.90;;;3.20;93.00;;;;;;5063269;28;20228;-71
2021/04/04 02:36:31;;;;;;;7.07;4.43;;;3.40;92.80;;;;;;5063072;28;20437;-71
2021/04/04 02:39:19;;;;;;;6.60;3.97;;;3.20;92.90;;;;;;5055735;28;20524;-71
2021/04/04 02:42:07;;;;;;;8.80;5.22;;;3.20;93.40;;;;;;5060674;28;21096;-70
2021/04/04 02:44:53;;;;;;;10.40;4.90;;;3.10;93.90;;;;;;5061166;28;20677;-72
2021/04/04 02:47:43;;;;;;;8.20;4.97;;;3.20;93.80;;;;;;5055326;28;20458;-72
2021/04/04 02:50:29;;;;;;;9.45;5.70;;;3.30;93.30;;;;;;5062217;28;20478;-70
2021/04/04 02:53:16;;;;;;;14.68;4.82;;;3.30;93.40;;;;;;5060294;28;20248;-71
2021/04/04 02:56:02;;;;;;;14.37;5.20;;;3.40;93.20;;;;;;5057622;28;20287;-70
2021/04/04 02:58:50;;;;;;;7.60;4.60;;;3.30;93.10;;;;;;5062642;28;20522;-70
2021/04/04 03:01:37;;;;;;;8.33;5.13;;;3.30;93.10;;;;;;5059870;28;20469;-69
2021/04/04 03:04:23;;;;;;;15.20;5.50;;;3.40;93.10;;;;;;5062350;28;20446;-69
2021/04/04 03:07:11;;;;;;;8.30;5.20;;;3.40;92.60;;;;;;5061834;28;20322;-70
2021/04/04 03:10:01;;;;;;;11.40;4.60;;;3.30;93.30;;;;;;5060300;28;20474;-70
2021/04/04 03:12:49;;;;;;;12.60;4.43;;;3.30;93.00;;;;;;5062458;28;20487;-70
2021/04/04 03:15:36;;;;;;;7.05;4.32;;;3.20;93.30;;;;;;5064304;28;20440;-72
2021/04/04 03:18:23;;;;;;;8.97;5.20;;;3.20;93.30;;;;;;5062736;28;20736;-70
2021/04/04 03:21:09;;;;;;;9.93;5.10;;;3.30;93.20;;;;;;5059094;28;20531;-69
2021/04/04 03:23:55;;;;;;;7.93;4.28;;;3.40;92.80;;;;;;5057249;28;20822;-69
2021/04/04 03:26:42;;;;;;;7.90;4.68;;;3.50;92.60;;;;;;5060564;28;20209;-72
2021/04/04 03:29:29;;;;;;;11.00;5.63;;;3.50;92.50;;;;;;5064602;28;20204;-69
2021/04/04 03:32:15;;;;;;;6.32;4.53;;;3.50;92.40;;;;;;5059367;28;21102;-70
2021/04/04 03:35:00;;;;;;;9.70;4.85;;;3.30;93.00;;;;;;5067464;28;20236;-73
2021/04/04 03:37:45;;;;;;;13.88;5.05;;;3.00;93.30;;;;;;5064781;28;20339;-74
2021/04/04 03:40:31;;;;;;;8.15;4.30;;;3.00;94.10;;;;;;5059192;28;20201;-72
2021/04/04 03:43:21;;;;;;;9.27;5.10;;;2.80;94.20;;;;;;5067839;28;20228;-69
2021/04/04 03:46:11;;;;;;;8.50;4.90;;;2.80;94.60;;;;;;5066661;28;20246;-73
2021/04/04 03:48:56;;;;;;;13.77;4.80;;;2.80;94.90;;;;;;5056734;28;20530;-75
2021/04/04 03:51:42;;;;;;;8.30;4.50;;;2.80;95.00;;;;;;5065963;28;20204;-71
2021/04/04 03:54:31;;;;;;;7.03;4.43;;;2.70;95.20;;;;;;5062623;28;20441;-72
2021/04/04 03:57:16;;;;;;;7.30;4.80;;;2.70;95.90;;;;;;5062214;28;20887;-70
2021/04/04 04:00:05;;;;;;;11.57;4.57;;;2.70;96.20;;;;;;5060772;28;20204;-71
2021/04/04 04:02:52;;;;;;;18.37;5.80;;;2.60;96.10;;;;;;5067530;28;21389;-71
2021/04/04 04:05:38;;;;;;;13.33;5.03;;;2.60;96.70;;;;;;5064598;28;20997;-70
2021/04/04 04:08:25;;;;;;;11.20;5.07;;;2.80;96.50;;;;;;5057544;28;20417;-70
2021/04/04 04:11:11;;;;;;;9.00;5.05;;;3.00;96.10;;;;;;5055817;28;20240;-69
2021/04/04 04:13:58;;;;;;;7.87;4.60;;;3.20;95.30;;;;;;5066477;28;20290;-70
2021/04/04 04:16:45;;;;;;;13.33;5.43;;;3.20;94.50;;;;;;5062093;28;20513;-74
2021/04/04 04:19:30;;;;;;;11.83;4.47;;;3.10;94.70;;;;;;5060240;28;20483;-73
2021/04/04 04:22:16;;;;;;;8.18;4.63;;;3.10;95.10;;;;;;5061715;28;20445;-71
2021/04/04 04:25:01;;;;;;;8.60;4.90;;;2.90;95.00;;;;;;5059860;28;20204;-69
2021/04/04 04:27:48;;;;;;;6.82;4.72;;;2.80;95.60;;;;;;5063806;28;20239;-70
2021/04/04 04:30:34;;;;;;;9.48;4.15;;;2.70;95.90;;;;;;5061960;28;20235;-74
2021/04/04 04:33:21;;;;;;;15.97;4.90;;;2.60;96.40;;;;;;5058768;28;20275;-69
2021/04/04 04:36:08;;;;;;;7.40;4.05;;;2.60;96.40;;;;;;5057415;28;20539;-70
2021/04/04 04:38:55;;;;;;;7.83;4.10;;;2.60;96.30;;;;;;5063305;28;20200;-70
2021/04/04 04:41:42;;;;;;;7.97;4.30;;;2.70;96.10;;;;;;5064223;28;20512;-72
2021/04/04 04:44:30;;;;;;;8.98;4.72;;;2.80;96.00;;;;;;5057629;28;20438;-73
2021/04/04 04:47:16;;;;;;;15.63;4.68;;;3.10;95.90;;;;;;5060020;28;20204;-70
2021/04/04 04:50:03;;;;;;;6.67;4.30;;;3.20;95.40;;;;;;5057372;28;20219;-71
2021/04/04 04:52:48;;;;;;;7.20;4.63;;;3.20;95.20;;;;;;5056727;28;20487;-70
2021/04/04 04:55:34;;;;;;;9.43;5.07;;;3.20;95.10;;;;;;5058788;28;21106;-70
2021/04/04 04:58:19;;;;;;;12.43;4.93;;;3.20;94.80;;;;;;5057793;28;20449;-70
2021/04/04 05:01:08;;;;;;;8.55;4.85;;;3.20;94.60;;;;;;5060559;28;20215;-70
2021/04/04 05:03:53;;;;;;;8.57;3.70;;;3.00;94.50;;;;;;5057960;28;20239;-70
2021/04/04 05:06:41;;;;;;;9.83;4.23;;;2.80;95.30;;;;;;5060561;28;20813;-70
2021/04/04 05:09:27;;;;;;;13.57;6.93;;;2.60;96.30;;;;;;5060654;28;20459;-70
2021/04/04 05:12:17;;;;;;;8.53;4.70;;;2.60;96.70;;;;;;5059693;28;20223;-71
2021/04/04 05:15:03;;;;;;;19.10;4.90;;;2.50;97.50;;;;;;5061251;28;21223;-70
2021/04/04 05:17:49;;;;;;;6.70;4.33;;;2.40;98.20;;;;;;5059768;28;20946;-69
2021/04/04 05:20:34;;;;;;;8.10;4.57;;;2.30;99.00;;;;;;5059579;28;20430;-70
2021/04/04 05:23:22;;;;;;;9.55;5.05;;;2.30;99.90;;;;;;5061124;28;20903;-71
2021/04/04 05:26:08;;;;;;;10.50;5.07;;;2.40;99.70;;;;;;5062775;28;20820;-72
2021/04/04 05:28:53;;;;;;;6.20;4.40;;;2.50;99.60;;;;;;5059259;28;20492;-70
2021/04/04 05:31:45;;;;;;;7.47;4.30;;;2.70;99.30;;;;;;5064378;28;21034;-70
2021/04/04 05:34:30;;;;;;;10.82;5.15;;;3.00;99.10;;;;;;5057082;28;20251;-70
2021/04/04 05:37:16;;;;;;;8.60;3.65;;;3.20;98.70;;;;;;5061934;28;20211;-72
2021/04/04 05:40:02;;;;;;;7.40;4.43;;;3.30;98.50;;;;;;5061668;28;20205;-70
2021/04/04 05:42:53;;;;;;;10.33;4.27;;;3.50;98.10;;;;;;5057862;28;20554;-69
2021/04/04 05:45:45;;;;;;;8.20;5.00;;;3.60;97.90;;;;;;5058084;28;20926;-70
2021/04/04 05:48:41;;;;;;;13.33;5.43;;;3.60;97.80;;;;;;5060506;28;20454;-73
2021/04/04 05:51:45;;;;;;;11.33;5.40;;;3.60;97.50;;;;;;5061868;28;20503;-71
2021/04/04 05:55:02;;;;;;;10.40;4.60;;;3.70;97.30;;;;;;5064175;28;20947;-71
2021/04/04 05:57:55;;;;;;;5.87;4.17;;;3.20;98.20;;;;;;5056172;28;20490;-71
2021/04/04 06:00:45;;;;;;;9.17;4.43;;;3.30;98.70;;;;;;5063868;28;20482;-71
2021/04/04 06:03:56;;;;;;;6.80;4.23;;;3.40;99.10;;;;;;5058446;28;20501;-73
2021/04/04 06:07:17;;;;;;;8.85;4.80;;;3.70;98.70;;;;;;5060156;28;20414;-70
2021/04/04 06:10:07;;;;;;;12.75;5.18;;;3.90;98.20;;;;;;5056644;28;20207;-70
2021/04/04 06:13:19;;;;;;;13.60;4.60;;;4.10;97.80;;;;;;5054700;28;20275;-70
2021/04/04 06:16:11;;;;;;;8.33;4.97;;;4.20;97.40;;;;;;5060800;28;21050;-70
2021/04/04 06:19:14;;;;;;;7.63;4.63;;;4.30;97.30;;;;;;5057395;28;20424;-70
2021/04/04 06:22:08;;;;;;;10.80;4.93;;;4.50;96.90;;;;;;5055943;28;20520;-71
2021/04/04 06:24:58;;;;;;;20.10;5.30;;;4.60;97.20;;;;;;5061332;28;20409;-70
2021/04/04 06:27:54;;;;;;;10.47;5.13;;;4.60;97.30;;;;;;5056885;28;20459;-70
2021/04/04 06:30:46;;;;;;;10.30;5.60;;;4.70;96.70;;;;;;5061912;28;20635;-73
2021/04/04 06:33:37;;;;;;;12.70;6.33;;;4.70;96.50;;;;;;5056348;28;20545;-71
2021/04/04 06:36:36;;;;;;;10.53;5.50;;;4.80;96.80;;;;;;5058902;28;20463;-70
2021/04/04 06:39:39;;;;;;;12.00;6.80;;;4.90;97.50;;;;;;5056949;28;20472;-70
2021/04/04 06:42:36;;;;;;;15.90;7.00;;;5.00;97.50;;;;;;5059913;28;20520;-71
2021/04/04 06:45:28;;;;;;;18.80;6.60;;;5.10;97.40;;;;;;5058815;28;20970;-70
2021/04/04 06:48:29;;;;;;;14.20;6.80;;;5.30;97.60;;;;;;5063071;28;20938;-71
2021/04/04 06:51:24;;;;;;;12.03;5.93;;;5.40;97.70;;;;;;5056381;28;20539;-70
2021/04/04 06:54:20;;;;;;;9.97;5.83;;;5.50;97.70;;;;;;5057164;28;20475;-71
2021/04/04 06:57:18;;;;;;;17.33;6.00;;;5.60;97.40;;;;;;5056979;28;20807;-70
2021/04/04 07:00:07;;;;;;;8.60;5.90;;;5.70;97.20;;;;;;5056671;28;20982;-73
2021/04/04 07:03:01;;;;;;;12.10;6.33;;;5.80;96.80;;;;;;5055484;28;20445;-70
2021/04/04 07:05:51;;;;;;;12.10;6.13;;;5.90;96.30;;;;;;5060399;28;20459;-71
2021/04/04 07:08:54;;;;;;;14.33;6.33;;;6.10;96.00;;;;;;5062190;28;20442;-70
2021/04/04 07:11:49;;;;;;;17.70;6.97;;;6.30;95.10;;;;;;5061770;28;21242;-70
2021/04/04 07:14:59;;;;;;;12.10;6.53;;;6.30;93.20;;;;;;5058737;28;20484;-71
2021/04/04 07:18:15;;;;;;;13.23;6.07;;;6.50;93.30;;;;;;5065102;28;20993;-68
2021/04/04 07:21:17;;;;;;;15.73;6.70;;;6.60;92.60;;;;;;5068117;28;20433;-72
2021/04/04 07:24:11;;;;;;;15.37;6.60;;;6.80;92.30;;;;;;5057997;28;21096;-72
2021/04/04 07:27:09;;;;;;;12.70;6.70;;;7.00;92.40;;;;;;5066281;28;21039;-71
2021/04/04 07:30:28;;;;;;;11.27;6.10;;;7.10;91.90;;;;;;5065959;28;20463;-71
2021/04/04 07:33:37;;;;;;;8.80;5.33;;;7.20;91.70;;;;;;5062233;28;20496;-71
2021/04/04 07:36:30;;;;;;;9.90;6.10;;;7.40;92.30;;;;;;5058882;28;20477;-71
2021/04/04 07:39:25;;;;;;;12.30;6.53;;;7.50;92.00;;;;;;5060077;28;20484;-71
2021/04/04 07:42:18;;;;;;;12.40;5.93;;;7.70;91.50;;;;;;5059871;28;21006;-72
2021/04/04 07:45:13;;;;;;;21.77;6.27;;;7.80;91.40;;;;;;5060527;28;20443;-71
2021/04/04 07:48:11;;;;;;;13.73;6.20;;;8.00;91.90;;;;;;5068281;28;20425;-70
2021/04/04 07:51:02;;;;;;;12.50;5.40;;;8.20;92.40;;;;;;5062965;28;20443;-71
2021/04/04 07:53:54;;;;;;;9.47;5.43;;;8.50;92.10;;;;;;5060474;28;21003;-70
2021/04/04 07:56:43;;;;;;;13.03;6.23;;;8.60;90.40;;;;;;5067091;28;20477;-71
2021/04/04 07:59:36;;;;;;;19.10;7.13;;;8.80;90.20;;;;;;5060357;28;20494;-70
2021/04/04 08:02:27;;;;;;;13.43;7.30;;;8.90;88.00;;;;;;5060868;28;20470;-74
2021/04/04 08:05:15;;;;;;;18.03;7.93;;;8.90;85.10;;;;;;5061803;28;21010;-71
2021/04/04 08:08:04;;;;;;;14.83;8.10;;;8.90;83.00;;;;;;5057154;28;20479;-72
2021/04/04 08:10:58;;;;;;;19.80;7.50;;;8.90;81.40;;;;;;5062496;28;20433;-69
2021/04/04 08:13:48;;;;;;;17.40;7.87;;;9.00;82.30;;;;;;5061471;28;20479;-71
2021/04/04 08:16:43;;;;;;;14.20;6.80;;;9.10;82.30;;;;;;5058921;28;21011;-70
2021/04/04 08:19:28;;;;;;;17.10;6.97;;;9.20;82.80;;;;;;5061369;28;20463;-72
2021/04/04 08:22:20;;;;;;;14.80;6.27;;;9.30;80.60;;;;;;5060693;28;20438;-70
2021/04/04 08:25:10;;;;;;;20.97;7.20;;;9.50;77.60;;;;;;5056607;28;20425;-71
2021/04/04 08:27:59;;;;;;;13.33;6.53;;;9.50;76.90;;;;;;5062244;28;20835;-71
2021/04/04 08:30:50;;;;;;;15.70;7.37;;;9.70;77.40;;;;;;5060687;28;20447;-73
2021/04/04 08:33:44;;;;;;;11.57;6.47;;;9.80;77.90;;;;;;5059494;28;20456;-71
2021/04/04 08:36:33;;;;;;;20.33;7.63;;;9.90;73.40;;;;;;5052441;28;20506;-74
2021/04/04 08:39:21;;;;;;;10.70;7.10;;;10.00;73.30;;;;;;5060665;28;20445;-71
2021/04/04 08:42:09;;;;;;;16.93;6.97;;;10.10;74.50;;;;;;5064897;28;20783;-70
2021/04/04 08:45:04;;;;;;;16.53;6.33;;;10.20;71.20;;;;;;5061311;28;20850;-71
2021/04/04 08:47:51;;;;;;;12.83;7.17;;;10.30;68.10;;;;;;5056337;28;20487;-72
2021/04/04 08:50:41;;;;;;;19.73;7.33;;;10.30;68.60;;;;;;5060620;28;20420;-71
2021/04/04 08:53:31;;;;;;;15.07;6.50;;;10.40;68.10;;;;;;5064517;28;20457;-71
2021/04/04 08:56:18;;;;;;;15.80;7.27;;;10.50;66.90;;;;;;5062587;28;20478;-70
2021/04/04 08:59:08;;;;;;;11.80;5.63;;;10.60;66.50;;;;;;5062705;28;21333;-70
2021/04/04 09:02:01;;;;;;;20.97;6.27;;;10.70;67.00;;;;;;5060320;28;20456;-70
2021/04/04 09:04:46;;;;;;;16.70;6.23;;;10.80;64.50;;;;;;5063093;28;20430;-70
2021/04/04 09:07:34;;;;;;;11.50;5.77;;;10.80;62.70;;;;;;5060402;28;20426;-73
2021/04/04 09:10:20;;;;;;;11.70;6.40;;;10.90;62.40;;;;;;5058158;28;20794;-70
2021/04/04 09:13:08;;;;;;;19.23;7.20;;;11.00;62.10;;;;;;5068401;28;20517;-70
2021/04/04 09:15:57;;;;;;;15.60;6.43;;;11.10;57.00;;;;;;5059175;28;20857;-69
2021/04/04 09:18:47;;;;;;;8.93;5.93;;;11.20;59.40;;;;;;5057335;28;20815;-70
2021/04/04 09:21:38;;;;;;;14.23;6.03;;;11.10;57.00;;;;;;5062598;28;20466;-69
2021/04/04 09:24:25;;;;;;;12.70;7.00;;;11.20;59.90;;;;;;5064337;28;20445;-72
2021/04/04 09:27:13;;;;;;;10.73;6.20;;;11.30;61.50;;;;;;5061648;28;20933;-70
2021/04/04 09:30:01;;;;;;;20.60;8.00;;;11.50;61.70;;;;;;5056014;28;20462;-70
2021/04/04 09:32:47;;;;;;;12.57;6.30;;;11.70;60.60;;;;;;5055551;28;20557;-71
2021/04/04 09:35:34;;;;;;;12.33;7.00;;;11.90;58.90;;;;;;5059922;28;20466;-70
2021/04/04 09:38:20;;;;;;;18.83;6.47;;;12.00;51.80;;;;;;5061142;28;20421;-71
2021/04/04 09:41:06;;;;;;;12.43;6.23;;;12.20;52.10;;;;;;5060506;28;20897;-70
2021/04/04 09:44:02;;;;;;;12.47;6.17;;;12.20;49.60;;;;;;5061315;28;20564;-71
2021/04/04 09:46:51;;;;;;;15.60;6.90;;;11.80;51.20;;;;;;5059801;28;20452;-75
2021/04/04 09:49:40;;;;;;;13.10;6.90;;;11.80;53.00;;;;;;5058746;28;20472;-73
2021/04/04 09:52:29;;;;;;;18.10;5.37;;;11.50;50.90;;;;;;5058164;28;20461;-73
2021/04/04 09:55:17;;;;;;;12.53;6.03;;;11.30;52.10;;;;;;5060749;28;20478;-73
2021/04/04 09:58:04;;;;;;;13.43;5.73;;;11.30;52.40;;;;;;5057988;28;20594;-72
2021/04/04 10:00:49;;;;;;;12.23;5.60;;;11.20;51.10;;;;;;5061043;28;20494;-73
2021/04/04 10:03:34;;;;;;;16.43;6.13;;;10.90;51.50;;;;;;5060963;28;20467;-72
2021/04/04 10:06:20;;;;;;;11.13;6.07;;;10.70;53.10;;;;;;5064463;28;20434;-72
2021/04/04 10:09:11;;;;;;;10.33;5.63;;;10.70;53.20;;;;;;5057855;28;20447;-73
2021/04/04 10:12:00;;;;;;;17.40;6.83;;;10.80;53.30;;;;;;5052368;28;20547;-75
2021/04/04 10:15:00;;;;;;;20.83;7.17;;;11.20;52.60;;;;;;5058411;28;20436;-74
2021/04/04 10:17:53;;;;;;;12.57;6.53;;;11.60;57.10;;;;;;5054101;28;20456;-73
2021/04/04 10:20:40;;;;;;;13.90;5.77;;;12.00;54.50;;;;;;5056571;28;20439;-74
2021/04/04 10:23:29;;;;;;;13.60;6.20;;;12.40;55.30;;;;;;5055182;28;20454;-73
2021/04/04 10:26:19;;;;;;;11.80;6.10;;;12.70;52.20;;;;;;5052621;28;20412;-72
2021/04/04 10:29:05;;;;;;;14.80;6.73;;;12.80;45.60;;;;;;5056302;28;20454;-73
2021/04/04 10:31:50;;;;;;;20.57;7.50;;;12.80;46.70;;;;;;5054122;28;20448;-73
2021/04/04 10:34:45;;;;;;;11.90;6.80;;;12.40;45.20;;;;;;5055139;28;20421;-72
2021/04/04 10:37:30;;;;;;;12.20;6.47;;;12.50;48.30;;;;;;5057082;28;20418;-72
2021/04/04 10:40:16;;;;;;;21.17;6.37;;;12.70;46.70;;;;;;5056747;28;20449;-71
2021/04/04 10:43:02;;;;;;;16.47;7.10;;;12.50;44.30;;;;;;5057925;28;20512;-73
2021/04/04 10:46:12;;;;;;;30.23;7.60;;;12.30;45.10;;;;;;5061977;28;20409;-72
2021/04/04 10:48:59;;;;;;;16.40;7.17;;;12.20;45.00;;;;;;5064674;28;20795;-71
2021/04/04 10:51:44;;;;;;;17.20;7.30;;;12.40;46.00;;;;;;5065812;28;21178;-72
2021/04/04 10:54:30;;;;;;;21.17;7.43;;;12.70;45.60;;;;;;5061070;28;20429;-70
2021/04/04 10:57:16;;;;;;;17.33;6.90;;;13.20;48.70;;;;;;5061152;28;20519;-71
2021/04/04 11:00:05;;;;;;;18.53;7.30;;;13.50;45.20;;;;;;5065079;28;20418;-70
2021/04/04 11:02:51;;;;;;;22.03;7.63;;;13.60;44.10;;;;;;5062615;28;20475;-73
2021/04/04 11:05:37;;;;;;;15.80;6.73;;;13.80;42.40;;;;;;5065408;28;20554;-72
2021/04/04 11:08:23;;;;;;;18.90;8.60;;;14.10;42.40;;;;;;5061051;28;20418;-72
2021/04/04 11:11:10;;;;;;;17.47;7.60;;;14.10;39.70;;;;;;5065458;28;20441;-73
2021/04/04 11:13:59;;;;;;;14.40;7.37;;;14.00;40.50;;;;;;5062383;28;20449;-72
2021/04/04 11:16:49;;;;;;;15.63;7.73;;;13.70;40.90;;;;;;5060817;28;20445;-72
2021/04/04 11:19:35;;;;;;;13.93;7.10;;;13.30;41.60;;;;;;5057106;28;20974;-71
2021/04/04 11:22:22;;;;;;;15.20;7.60;;;13.20;42.90;;;;;;5064112;28;20469;-71
2021/04/04 11:25:10;;;;;;;12.73;6.33;;;13.20;41.20;;;;;;5059174;28;20426;-71
2021/04/04 11:27:56;;;;;;;14.67;6.90;;;13.30;40.70;;;;;;5060898;28;20437;-72
2021/04/04 11:30:41;;;;;;;13.93;5.90;;;13.10;38.80;;;;;;5060865;28;20500;-72
2021/04/04 11:33:30;;;;;;;9.13;5.97;;;12.70;38.70;;;;;;5060755;28;20445;-72
2021/04/04 11:36:15;;;;;;;19.87;7.77;;;12.40;39.10;;;;;;5060046;28;20461;-70
2021/04/04 11:39:09;;;;;;;14.73;7.20;;;12.30;43.90;;;;;;5064656;28;20429;-71
2021/04/04 11:41:56;;;;;;;17.03;6.90;;;12.40;41.30;;;;;;5064024;28;20474;-72
2021/04/04 11:44:52;;;;;;;19.50;7.07;;;12.40;40.70;;;;;;5061785;28;20861;-71
2021/04/04 11:47:38;;;;;;;10.17;6.93;;;12.30;41.60;;;;;;5060913;28;20510;-70
2021/04/04 11:50:25;;;;;;;18.80;7.57;;;12.20;40.90;;;;;;5059768;28;20498;-71
2021/04/04 11:53:39;;;;;;;15.97;8.00;;;12.20;40.80;;;;;;5060376;28;20529;-71
2021/04/04 11:56:48;;;;;;;18.83;7.00;;;12.20;41.20;;;;;;5065888;28;20914;-72
2021/04/04 11:59:34;;;;;;;23.53;9.10;;;12.30;41.80;;;;;;5062135;28;20568;-71
2021/04/04 12:02:21;;;;;;;14.80;7.90;;;12.40;41.80;;;;;;5061557;28;20497;-72
2021/04/04 12:05:08;;;;;;;17.30;7.33;;;12.50;42.60;;;;;;5063371;28;20531;-72
2021/04/04 12:07:57;;;;;;;18.33;8.90;;;12.50;42.70;;;;;;5061860;28;20450;-71
2021/04/04 12:10:43;;;;;;;19.73;8.30;;;12.50;43.00;;;;;;5060383;28;20466;-71
2021/04/04 12:13:29;;;;;;;18.90;7.67;;;12.50;42.40;;;;;;5059651;28;20457;-72
2021/04/04 12:16:14;;;;;;;16.37;8.63;;;12.40;42.90;;;;;;5063995;28;20490;-71
2021/04/04 12:19:00;;;;;;;19.20;9.60;;;12.60;43.90;;;;;;5059029;28;21071;-71
2021/04/04 12:21:50;;;;;;;18.80;8.90;;;12.50;43.10;;;;;;5065022;28;20828;-71
2021/04/04 12:24:44;;;;;;;24.97;7.93;;;12.60;42.80;;;;;;5056327;28;20432;-71
2021/04/04 12:27:29;;;;;;;15.70;8.80;;;12.70;42.20;;;;;;5062919;28;20421;-70
2021/04/04 12:30:26;;;;;;;17.90;7.87;;;12.60;43.20;;;;;;5061353;28;20501;-70
2021/04/04 12:33:13;;;;;;;22.40;9.03;;;12.80;43.30;;;;;;5060998;28;20489;-70
2021/04/04 12:36:04;;;;;;;20.03;9.03;;;12.80;43.10;;;;;;5054011;28;20509;-71
2021/04/04 12:38:50;;;;;;;16.00;9.13;;;12.80;43.40;;;;;;5060822;28;20697;-70
2021/04/04 12:41:37;;;;;;;19.90;8.83;;;12.80;44.50;;;;;;5057017;28;20467;-72
2021/04/04 12:44:32;;;;;;;20.50;9.30;;;12.90;44.70;;;;;;5057120;28;20455;-72
2021/04/04 12:47:19;;;;;;;19.83;8.57;;;12.90;43.50;;;;;;5063899;28;20413;-71
2021/04/04 12:50:06;;;;;;;19.53;8.97;;;12.90;43.60;;;;;;5058598;28;20462;-72
2021/04/04 12:52:53;;;;;;;17.93;9.53;;;12.90;43.50;;;;;;5054763;28;20904;-73
2021/04/04 12:55:38;;;;;;;17.00;9.13;;;12.90;43.20;;;;;;5062678;28;20479;-72
2021/04/04 12:58:30;;;;;;;15.83;9.67;;;12.90;43.30;;;;;;5061599;28;20453;-72
2021/04/04 13:01:16;;;;;;;18.13;9.47;;;12.90;43.70;;;;;;5056248;28;20585;-71
2021/04/04 13:04:02;;;;;;;16.77;9.00;;;13.00;43.50;;;;;;5061349;28;20850;-72
2021/04/04 13:06:48;;;;;;;19.97;8.13;;;13.10;43.20;;;;;;5064773;28;20442;-72
2021/04/04 13:09:33;;;;;;;22.40;9.30;;;13.30;43.00;;;;;;5061455;28;20472;-72
2021/04/04 13:12:20;;;;;;;18.23;8.20;;;13.50;42.70;;;;;;5062918;28;20501;-72
2021/04/04 13:15:08;;;;;;;17.40;8.33;;;13.60;41.10;;;;;;5060209;28;20485;-75
2021/04/04 13:17:53;;;;;;;28.90;9.43;;;13.60;40.70;;;;;;5063947;28;20930;-74
2021/04/04 13:20:38;;;;;;;24.77;9.17;;;13.60;41.40;;;;;;5060276;28;20432;-73
2021/04/04 13:23:24;;;;;;;20.23;8.67;;;13.50;41.30;;;;;;5060323;28;21300;-73
2021/04/04 13:26:12;;;;;;;15.73;8.50;;;13.40;42.80;;;;;;5064369;28;20492;-72
2021/04/04 13:28:59;;;;;;;16.10;8.77;;;13.70;42.90;;;;;;5059942;28;20555;-72
2021/04/04 13:31:53;;;;;;;19.17;9.23;;;14.00;41.60;;;;;;5064091;28;20446;-72
2021/04/04 13:34:39;;;;;;;18.43;9.70;;;13.90;39.60;;;;;;5063837;28;20450;-72
2021/04/04 13:37:25;;;;;;;20.37;9.80;;;14.20;41.40;;;;;;5058342;28;20515;-73
2021/04/04 13:40:11;;;;;;;18.53;8.37;;;14.30;38.20;;;;;;5061331;28;20492;-72
2021/04/04 13:43:01;;;;;;;15.00;8.67;;;14.30;37.40;;;;;;5059240;28;20437;-74
2021/04/04 13:45:47;;;;;;;16.70;9.30;;;13.90;38.60;;;;;;5059313;28;20493;-71
2021/04/04 13:48:33;;;;;;;16.43;9.63;;;13.40;39.10;;;;;;5063609;28;20549;-72
2021/04/04 13:51:22;;;;;;;19.53;9.17;;;13.50;39.60;;;;;;5058210;28;20532;-73
2021/04/04 13:54:10;;;;;;;25.43;8.93;;;13.50;41.70;;;;;;5059679;28;20451;-74
2021/04/04 13:56:57;;;;;;;15.80;8.73;;;13.60;42.10;;;;;;5060447;28;20472;-72
2021/04/04 13:59:49;;;;;;;23.67;9.70;;;13.60;40.30;;;;;;5055597;28;20433;-71
2021/04/04 14:02:36;;;;;;;14.27;8.47;;;13.50;41.40;;;;;;5060647;28;20445;-74
2021/04/04 14:05:26;;;;;;;13.97;8.03;;;13.60;40.90;;;;;;5059043;28;20935;-73
2021/04/04 14:08:16;;;;;;;16.03;9.17;;;14.00;41.30;;;;;;5062913;28;20453;-72
2021/04/04 14:11:03;;;;;;;20.77;9.57;;;14.20;39.60;;;;;;5061080;28;20500;-73
2021/04/04 14:13:48;;;;;;;18.70;8.50;;;14.40;39.40;;;;;;5059114;28;20579;-70
2021/04/04 14:16:34;;;;;;;22.70;8.83;;;14.80;39.70;;;;;;5060728;28;20457;-71
2021/04/04 14:19:20;;;;;;;16.90;8.80;;;14.90;36.60;;;;;;5056760;28;20929;-71
2021/04/04 14:22:08;;;;;;;20.83;9.80;;;15.10;38.00;;;;;;5062925;28;20461;-72
2021/04/04 14:24:53;;;;;;;20.73;10.20;;;15.10;37.70;;;;;;5056835;28;20493;-72
2021/04/04 14:27:38;;;;;;;21.03;9.20;;;15.20;38.10;;;;;;5064978;28;20447;-73
2021/04/04 14:30:24;;;;;;;20.13;10.67;;;15.20;39.20;;;;;;5064377;28;20497;-73
2021/04/04 14:33:09;;;;;;;14.87;8.53;;;15.30;37.80;;;;;;5063640;28;21007;-73
2021/04/04 14:35:55;;;;;;;19.13;9.60;;;15.60;36.00;;;;;;5051773;28;20641;-73
2021/04/04 14:38:41;;;;;;;16.30;8.50;;;15.80;37.70;;;;;;5061719;28;20483;-73
2021/04/04 14:41:27;;;;;;;16.90;9.00;;;16.10;36.90;;;;;;5062516;28;20458;-71